Terminal Aerodrome Forecast
Issued by NWS Tulsa, OK

Home | Current Version | Previous Version | Text Only | Print | Product List | Glossary On
Versions: 1 2 3 4 5 6 7 8 9 10 11 12 13 14 15 16 17 18
000
FTUS44 KTSA 291329 AAA
TAFFSM
TAF AMD
KFSM 291329Z 2913/3012 26007KT P6SM -RA VCTS BKN040CB
     FM291500 09013KT P6SM BKN040
     FM292000 16015KT P6SM VCTS BKN025CB
     FM300100 VRB04KT P6SM BKN050=

USA.gov is the U.S. government's official web portal to all federal, state and local government web resources and services.